Time;durP1;ratioP1;P1;durP2;ratioP2;P2;SDS_P1;SDS_P2;PMS_P1;PMS_P2;Temp;Humidity;BMP_temperature;BMP_pressure;BME280_temperature;BME280_humidity;BME280_pressure;Samples;Min_cycle;Max_cycle;Signal;HPM_P1;HPM_P2
2022/11/04 00:01:45;;;;;;;38.80;20.75;;;;;;;;;;6260195;22;20003;-81
2022/11/04 00:04:12;;;;;;;37.53;20.50;;;;;;;;;;6291218;22;20019;-81
2022/11/04 00:06:39;;;;;;;38.72;20.42;;;;;;;;;;6261770;22;20011;-81
2022/11/04 00:09:06;;;;;;;37.88;20.90;;;;;;;;;;6287564;22;20003;-81
2022/11/04 00:14:17;;;;;;;45.05;22.58;;;;;;;;;;6289107;22;20014;-80
2022/11/04 00:19:28;;;;;;;38.35;21.20;;;;;;;;;;6288567;22;20023;-82
2022/11/04 00:30:09;;;;;;;44.78;23.05;;;;;;;;;;6288128;22;20061;-83
2022/11/04 00:35:21;;;;;;;48.70;25.05;;;;;;;;;;6288633;22;20018;-82
2022/11/04 00:37:47;;;;;;;44.97;24.83;;;;;;;;;;6261689;22;20054;-81
2022/11/04 00:40:14;;;;;;;42.83;23.98;;;;;;;;;;6288370;22;20000;-81
2022/11/04 00:42:42;;;;;;;42.38;24.00;;;;;;;;;;6261778;22;20018;-83
2022/11/04 00:45:08;;;;;;;43.45;24.77;;;;;;;;;;6291680;22;20008;-83
2022/11/04 00:47:34;;;;;;;48.15;25.83;;;;;;;;;;6263879;22;20089;-84
2022/11/04 00:50:00;;;;;;;43.10;25.33;;;;;;;;;;6290463;22;20539;-84
2022/11/04 00:52:26;;;;;;;43.97;23.52;;;;;;;;;;6289060;22;20000;-83
2022/11/04 00:54:52;;;;;;;48.08;26.13;;;;;;;;;;6291264;22;20030;-82
2022/11/04 00:57:18;;;;;;;44.22;25.92;;;;;;;;;;6261833;22;20000;-81
2022/11/04 00:59:44;;;;;;;47.80;26.02;;;;;;;;;;6288264;22;19995;-83
2022/11/04 01:02:10;;;;;;;50.58;25.95;;;;;;;;;;6290390;22;19999;-84
2022/11/04 01:04:37;;;;;;;49.22;25.52;;;;;;;;;;6289701;22;20063;-82
2022/11/04 01:07:03;;;;;;;50.72;27.02;;;;;;;;;;6291050;22;20432;-84
2022/11/04 01:09:29;;;;;;;48.00;25.00;;;;;;;;;;6290077;22;20247;-85
2022/11/04 01:11:55;;;;;;;52.47;27.90;;;;;;;;;;6290143;22;20000;-84
2022/11/04 01:14:21;;;;;;;48.83;26.17;;;;;;;;;;6290231;22;20027;-86
2022/11/04 01:16:49;;;;;;;48.20;27.17;;;;;;;;;;6291524;22;19992;-84
2022/11/04 01:19:16;;;;;;;52.45;26.45;;;;;;;;;;6262170;22;20025;-83
2022/11/04 01:21:42;;;;;;;49.72;25.38;;;;;;;;;;6263079;22;20000;-83
2022/11/04 01:24:08;;;;;;;48.05;25.90;;;;;;;;;;6263588;22;20004;-82
2022/11/04 01:26:35;;;;;;;52.15;27.92;;;;;;;;;;6265241;22;20015;-85
2022/11/04 01:29:01;;;;;;;52.10;27.38;;;;;;;;;;6291573;22;20427;-84
2022/11/04 01:31:28;;;;;;;55.38;28.50;;;;;;;;;;6262935;22;20004;-84
2022/11/04 01:33:54;;;;;;;55.63;27.52;;;;;;;;;;6289507;22;20344;-84
2022/11/04 01:36:21;;;;;;;57.30;29.30;;;;;;;;;;6264917;22;20444;-84
2022/11/04 01:38:48;;;;;;;52.28;28.17;;;;;;;;;;6264188;22;20000;-85
2022/11/04 01:41:24;;;;;;;56.20;31.02;;;;;;;;;;6264397;22;20022;-83
2022/11/04 01:43:55;;;;;;;51.15;28.98;;;;;;;;;;6261234;22;20371;-84
2022/11/04 01:46:24;;;;;;;54.60;28.13;;;;;;;;;;6262270;22;20532;-82
2022/11/04 01:48:51;;;;;;;55.92;28.90;;;;;;;;;;6263060;22;20012;-84
2022/11/04 01:51:18;;;;;;;51.92;29.02;;;;;;;;;;6264775;22;20344;-84
2022/11/04 01:53:44;;;;;;;60.28;32.20;;;;;;;;;;6293501;22;19999;-84
2022/11/04 01:56:12;;;;;;;61.95;30.20;;;;;;;;;;6264789;22;20010;-84
2022/11/04 01:58:45;;;;;;;59.70;32.00;;;;;;;;;;6290773;22;19996;-83
2022/11/04 02:01:10;;;;;;;;;;;;;;;;;;6265398;22;20501;-84
2022/11/04 02:03:54;;;;;;;60.47;30.13;;;;;;;;;;6264645;22;19900;-82
2022/11/04 02:06:20;;;;;;;56.42;31.50;;;;;;;;;;6290220;22;20019;-84
2022/11/04 02:08:48;;;;;;;57.80;30.65;;;;;;;;;;6290505;22;20079;-82
2022/11/04 02:12:48;;;;;;;57.30;30.15;;;;;;;;;;6288964;22;19999;-82
2022/11/04 02:14:01;;;;;;;63.35;31.25;;;;;;;;;;6291833;22;20018;-84
2022/11/04 02:16:30;;;;;;;60.03;30.42;;;;;;;;;;6265195;22;20050;-84
2022/11/04 02:19:08;;;;;;;59.15;29.75;;;;;;;;;;6290513;22;20000;-84
2022/11/04 02:21:34;;;;;;;56.70;30.08;;;;;;;;;;6263856;22;20439;-83
2022/11/04 02:24:23;;;;;;;64.05;30.60;;;;;;;;;;6291166;22;19999;-84
2022/11/04 02:27:08;;;;;;;58.65;30.70;;;;;;;;;;6263272;22;20004;-84
2022/11/04 02:29:54;;;;;;;63.88;31.27;;;;;;;;;;6267801;22;20000;-85
2022/11/04 02:32:20;;;;;;;60.28;29.67;;;;;;;;;;6298720;22;20003;-81
2022/11/04 02:35:05;;;;;;;60.90;29.90;;;;;;;;;;6266984;22;20006;-85
2022/11/04 02:37:31;;;;;;;58.13;29.00;;;;;;;;;;6271011;22;20013;-81
2022/11/04 02:40:00;;;;;;;67.65;31.92;;;;;;;;;;6278501;22;19996;-84
2022/11/04 02:42:29;;;;;;;66.72;31.67;;;;;;;;;;6299777;22;20308;-84
2022/11/04 02:44:58;;;;;;;60.67;31.08;;;;;;;;;;6291468;22;20008;-82
2022/11/04 02:47:26;;;;;;;56.80;29.23;;;;;;;;;;6263702;22;20008;-85
2022/11/04 02:50:18;;;;;;;58.85;29.23;;;;;;;;;;6289684;22;20078;-83
2022/11/04 02:53:00;;;;;;;53.57;28.87;;;;;;;;;;6256650;22;20007;-85
2022/11/04 02:55:28;;;;;;;54.65;29.13;;;;;;;;;;6263920;22;20234;-86
2022/11/04 02:57:56;;;;;;;57.70;28.42;;;;;;;;;;6263764;22;20071;-82
2022/11/04 03:00:22;;;;;;;54.78;29.42;;;;;;;;;;6263157;22;20059;-85
2022/11/04 03:02:54;;;;;;;54.97;27.73;;;;;;;;;;6262737;22;20003;-85
2022/11/04 03:05:22;;;;;;;59.13;30.63;;;;;;;;;;6289974;22;20419;-84
2022/11/04 03:07:50;;;;;;;53.92;27.80;;;;;;;;;;6290818;22;20000;-83
2022/11/04 03:10:21;;;;;;;55.67;27.40;;;;;;;;;;6263671;22;20007;-82
2022/11/04 03:13:07;;;;;;;53.97;27.35;;;;;;;;;;6291726;22;20000;-82
2022/11/04 03:15:34;;;;;;;55.95;29.10;;;;;;;;;;6238166;22;20429;-85
2022/11/04 03:18:08;;;;;;;53.00;27.88;;;;;;;;;;6292918;22;19996;-84
2022/11/04 03:20:36;;;;;;;51.97;29.13;;;;;;;;;;6264876;22;20000;-85
2022/11/04 03:23:02;;;;;;;59.05;28.88;;;;;;;;;;6265444;22;20092;-85
2022/11/04 03:25:32;;;;;;;53.42;28.73;;;;;;;;;;6291261;22;20003;-83
2022/11/04 03:28:05;;;;;;;53.75;28.20;;;;;;;;;;6291214;22;19999;-82
2022/11/04 03:30:40;;;;;;;52.60;25.13;;;;;;;;;;6292787;22;20027;-84
2022/11/04 03:33:21;;;;;;;55.30;28.48;;;;;;;;;;6292429;22;20065;-85
2022/11/04 03:35:47;;;;;;;53.25;27.40;;;;;;;;;;6294039;22;19995;-85
2022/11/04 03:38:13;;;;;;;48.60;26.75;;;;;;;;;;6266288;22;20003;-84
2022/11/04 03:40:39;;;;;;;47.55;28.15;;;;;;;;;;6264893;22;20018;-83
2022/11/04 03:43:21;;;;;;;52.80;27.15;;;;;;;;;;6269170;22;20064;-84
2022/11/04 03:45:47;;;;;;;46.97;26.10;;;;;;;;;;6301414;22;20003;-83
2022/11/04 03:48:13;;;;;;;51.70;26.17;;;;;;;;;;6274864;22;20071;-86
2022/11/04 03:50:43;;;;;;;46.90;25.10;;;;;;;;;;6274975;22;20008;-83
2022/11/04 03:53:11;;;;;;;53.58;26.67;;;;;;;;;;6274215;22;20003;-84
2022/11/04 03:55:52;;;;;;;48.70;26.95;;;;;;;;;;6265773;22;20422;-84
2022/11/04 03:58:18;;;;;;;44.88;25.13;;;;;;;;;;6263209;22;20008;-83
2022/11/04 04:00:51;;;;;;;45.45;25.33;;;;;;;;;;6262726;22;20059;-85
2022/11/04 04:03:40;;;;;;;49.05;25.48;;;;;;;;;;6264449;22;20004;-85
2022/11/04 04:06:24;;;;;;;48.92;26.17;;;;;;;;;;6291182;22;20427;-85
2022/11/04 04:08:53;;;;;;;44.53;24.75;;;;;;;;;;6264325;22;20023;-84
2022/11/04 04:11:28;;;;;;;49.30;26.45;;;;;;;;;;6290017;22;19996;-82
2022/11/04 04:13:54;;;;;;;50.38;27.45;;;;;;;;;;6263632;22;20000;-84
2022/11/04 04:16:25;;;;;;;46.88;24.73;;;;;;;;;;6264364;22;20007;-83
2022/11/04 04:18:54;;;;;;;49.83;26.63;;;;;;;;;;6294326;22;20000;-84
2022/11/04 04:21:21;;;;;;;48.30;26.73;;;;;;;;;;6300843;22;20082;-84
2022/11/04 04:29:23;;;;;;;49.53;26.48;;;;;;;;;;6295377;22;20026;-84
2022/11/04 04:31:52;;;;;;;45.05;25.40;;;;;;;;;;6263980;22;20006;-84
2022/11/04 04:34:23;;;;;;;48.88;24.92;;;;;;;;;;6263249;22;20034;-85
2022/11/04 04:37:12;;;;;;;51.00;26.52;;;;;;;;;;6263096;22;19996;-85
2022/11/04 04:45:20;;;;;;;46.95;26.00;;;;;;;;;;6291500;22;20022;-84
2022/11/04 04:47:46;;;;;;;46.25;25.92;;;;;;;;;;6263412;22;20331;-84
2022/11/04 04:50:16;;;;;;;49.47;25.88;;;;;;;;;;6262977;22;20046;-84
2022/11/04 04:52:45;;;;;;;46.03;25.67;;;;;;;;;;6263379;22;20008;-84
2022/11/04 04:55:11;;;;;;;48.92;26.77;;;;;;;;;;6263632;22;20010;-84
2022/11/04 04:57:38;;;;;;;48.97;25.73;;;;;;;;;;6261935;22;20340;-84
2022/11/04 05:00:05;;;;;;;46.25;27.30;;;;;;;;;;6263354;22;20000;-84
2022/11/04 05:02:31;;;;;;;52.78;26.63;;;;;;;;;;6262109;22;20505;-86
2022/11/04 05:04:58;;;;;;;53.92;28.08;;;;;;;;;;6262352;22;20000;-85
2022/11/04 05:07:24;;;;;;;49.10;24.70;;;;;;;;;;6291097;22;19996;-85
2022/11/04 05:09:50;;;;;;;51.22;25.95;;;;;;;;;;6291146;22;20013;-85
2022/11/04 05:12:17;;;;;;;53.38;27.30;;;;;;;;;;6289937;22;20049;-86
2022/11/04 05:14:43;;;;;;;49.78;25.65;;;;;;;;;;6288247;22;19999;-85
2022/11/04 05:17:09;;;;;;;40.83;23.42;;;;;;;;;;6290105;22;20004;-85
2022/11/04 05:19:35;;;;;;;48.85;25.08;;;;;;;;;;6262725;22;20050;-84
2022/11/04 05:22:01;;;;;;;43.70;24.15;;;;;;;;;;6290365;22;20033;-86
2022/11/04 05:24:27;;;;;;;48.78;25.63;;;;;;;;;;6261627;22;20004;-86
2022/11/04 05:26:53;;;;;;;49.47;27.35;;;;;;;;;;6262757;22;20355;-85
2022/11/04 05:29:19;;;;;;;46.78;26.05;;;;;;;;;;6289662;22;20004;-85
2022/11/04 05:31:45;;;;;;;42.33;24.13;;;;;;;;;;6260641;22;20053;-86
2022/11/04 05:34:11;;;;;;;43.30;24.70;;;;;;;;;;6258847;22;20091;-86
2022/11/04 05:36:38;;;;;;;49.78;24.52;;;;;;;;;;6261234;22;20004;-85
2022/11/04 05:39:05;;;;;;;47.13;24.40;;;;;;;;;;6261849;22;20015;-85
2022/11/04 05:41:31;;;;;;;46.22;24.95;;;;;;;;;;6291810;22;20004;-86
2022/11/04 05:43:58;;;;;;;54.20;27.38;;;;;;;;;;6259922;22;20075;-85
2022/11/04 05:46:26;;;;;;;47.35;25.58;;;;;;;;;;6293507;22;20023;-85
2022/11/04 05:48:52;;;;;;;50.28;26.42;;;;;;;;;;6262852;22;20138;-85
2022/11/04 05:51:20;;;;;;;55.83;28.17;;;;;;;;;;6286290;22;20079;-85
2022/11/04 05:53:46;;;;;;;50.10;25.95;;;;;;;;;;6282222;22;20058;-86
2022/11/04 05:56:12;;;;;;;52.97;28.20;;;;;;;;;;6257932;22;20004;-86
2022/11/04 05:58:38;;;;;;;50.67;27.00;;;;;;;;;;6258854;22;20031;-86
2022/11/04 06:01:23;;;;;;;52.95;27.70;;;;;;;;;;6289985;22;19999;-87
2022/11/04 06:03:50;;;;;;;48.90;25.92;;;;;;;;;;6303059;22;20043;-86
2022/11/04 06:06:16;;;;;;;51.05;27.08;;;;;;;;;;6267557;22;20019;-85
2022/11/04 06:08:42;;;;;;;50.92;26.70;;;;;;;;;;6289919;22;19996;-85
2022/11/04 06:11:08;;;;;;;52.63;27.38;;;;;;;;;;6289015;22;20000;-85
2022/11/04 06:13:34;;;;;;;49.22;27.25;;;;;;;;;;6289028;22;20014;-85
2022/11/04 06:16:00;;;;;;;54.10;27.90;;;;;;;;;;6262939;22;19999;-85
2022/11/04 06:18:26;;;;;;;56.83;29.33;;;;;;;;;;6263059;22;20010;-85
2022/11/04 06:21:11;;;;;;;54.38;28.42;;;;;;;;;;6290734;22;19996;-85
2022/11/04 06:23:37;;;;;;;57.47;31.05;;;;;;;;;;6290945;22;20000;-84
2022/11/04 06:26:03;;;;;;;59.33;29.15;;;;;;;;;;6259719;22;20007;-86
2022/11/04 06:28:30;;;;;;;59.80;31.48;;;;;;;;;;6259454;22;20321;-85
2022/11/04 06:31:00;;;;;;;58.38;30.23;;;;;;;;;;6286787;22;20003;-85
2022/11/04 06:33:29;;;;;;;66.07;33.10;;;;;;;;;;6290381;22;20126;-85
2022/11/04 06:35:58;;;;;;;61.67;30.13;;;;;;;;;;6259509;22;20004;-85
2022/11/04 06:38:24;;;;;;;62.92;29.58;;;;;;;;;;6257249;22;20455;-85
2022/11/04 06:40:50;;;;;;;61.65;30.13;;;;;;;;;;6258668;22;20078;-85
2022/11/04 06:43:16;;;;;;;60.15;29.52;;;;;;;;;;6285822;22;20022;-85
2022/11/04 06:45:42;;;;;;;68.85;33.35;;;;;;;;;;6258643;22;20015;-85
2022/11/04 06:48:08;;;;;;;64.55;32.45;;;;;;;;;;6257885;22;20073;-85
2022/11/04 06:50:35;;;;;;;63.30;32.83;;;;;;;;;;6284217;22;20057;-85
2022/11/04 06:53:00;;;;;;;66.43;32.08;;;;;;;;;;6256409;22;20012;-85
2022/11/04 06:55:26;;;;;;;65.95;31.40;;;;;;;;;;6282895;22;20000;-85
2022/11/04 06:57:52;;;;;;;63.22;31.08;;;;;;;;;;6257793;22;19999;-85
2022/11/04 07:00:19;;;;;;;66.80;33.22;;;;;;;;;;6280864;22;20007;-85
2022/11/04 07:02:45;;;;;;;65.45;35.35;;;;;;;;;;6283009;22;20031;-85
2022/11/04 07:05:11;;;;;;;75.53;34.75;;;;;;;;;;6257854;22;20007;-84
2022/11/04 07:07:37;;;;;;;73.28;33.55;;;;;;;;;;6285400;22;20308;-85
2022/11/04 07:10:03;;;;;;;76.03;35.42;;;;;;;;;;6257192;22;20455;-85
2022/11/04 07:12:29;;;;;;;69.88;35.83;;;;;;;;;;6285612;22;20099;-85
2022/11/04 07:14:55;;;;;;;68.75;34.17;;;;;;;;;;6285344;22;19996;-85
2022/11/04 07:17:21;;;;;;;70.25;34.20;;;;;;;;;;6285298;22;20285;-85
2022/11/04 07:19:47;;;;;;;79.55;35.83;;;;;;;;;;6284751;22;20000;-85
2022/11/04 07:22:13;;;;;;;69.93;33.90;;;;;;;;;;6259101;22;20060;-85
2022/11/04 07:24:39;;;;;;;73.80;34.28;;;;;;;;;;6258786;22;20011;-85
2022/11/04 07:27:06;;;;;;;72.05;32.47;;;;;;;;;;6258487;22;20008;-84
2022/11/04 07:29:32;;;;;;;71.90;35.80;;;;;;;;;;6255245;22;20004;-84
2022/11/04 07:31:58;;;;;;;67.57;35.30;;;;;;;;;;6257033;22;20087;-85
2022/11/04 07:34:24;;;;;;;73.55;35.15;;;;;;;;;;6284182;22;20011;-85
2022/11/04 07:36:50;;;;;;;81.95;34.65;;;;;;;;;;6256036;22;20339;-85
2022/11/04 07:39:16;;;;;;;76.57;36.20;;;;;;;;;;6282934;22;20207;-85
2022/11/04 07:41:43;;;;;;;80.65;38.05;;;;;;;;;;6254117;22;20006;-84
2022/11/04 07:44:10;;;;;;;77.15;34.88;;;;;;;;;;6283001;22;20012;-86
2022/11/04 07:46:36;;;;;;;79.03;36.50;;;;;;;;;;6256843;22;20003;-84
2022/11/04 07:49:03;;;;;;;78.75;38.33;;;;;;;;;;6282129;22;20007;-84
2022/11/04 07:51:31;;;;;;;73.75;35.17;;;;;;;;;;6257128;22;20015;-85
2022/11/04 07:53:57;;;;;;;65.72;32.65;;;;;;;;;;6257595;22;20057;-85
2022/11/04 07:56:23;;;;;;;78.10;32.00;;;;;;;;;;6284963;22;19996;-85
2022/11/04 07:58:49;;;;;;;73.38;32.90;;;;;;;;;;6262341;22;20059;-86
2022/11/04 08:01:17;;;;;;;68.47;32.47;;;;;;;;;;6258680;22;19999;-85
2022/11/04 08:03:43;;;;;;;71.30;34.35;;;;;;;;;;6258093;22;20439;-85
2022/11/04 08:06:10;;;;;;;66.32;30.88;;;;;;;;;;6255855;22;20100;-86
2022/11/04 08:08:36;;;;;;;75.65;33.53;;;;;;;;;;6284444;22;20007;-85
2022/11/04 08:11:07;;;;;;;69.15;31.92;;;;;;;;;;6257796;22;20027;-85
2022/11/04 08:13:35;;;;;;;67.82;31.13;;;;;;;;;;6285649;22;20004;-85
2022/11/04 08:16:02;;;;;;;66.30;30.98;;;;;;;;;;6286870;22;20532;-85
2022/11/04 08:18:28;;;;;;;67.03;31.40;;;;;;;;;;6283700;22;20002;-85
2022/11/04 08:20:54;;;;;;;64.15;28.40;;;;;;;;;;6285375;22;20400;-85
2022/11/04 08:23:20;;;;;;;63.30;29.83;;;;;;;;;;6285457;22;20125;-85
2022/11/04 08:25:46;;;;;;;65.32;29.73;;;;;;;;;;6285045;22;20014;-86
2022/11/04 08:28:16;;;;;;;68.63;31.00;;;;;;;;;;6256316;22;20008;-85
2022/11/04 08:30:51;;;;;;;68.28;30.95;;;;;;;;;;6258176;22;20007;-85
2022/11/04 08:33:19;;;;;;;68.47;31.00;;;;;;;;;;6257004;22;20011;-85
2022/11/04 08:35:45;;;;;;;71.10;31.35;;;;;;;;;;6257532;22;20026;-85
2022/11/04 08:38:11;;;;;;;67.38;30.63;;;;;;;;;;6255842;22;20015;-84
2022/11/04 08:40:37;;;;;;;71.32;32.53;;;;;;;;;;6255960;22;20004;-84
2022/11/04 08:43:03;;;;;;;73.38;29.80;;;;;;;;;;6256527;22;20042;-85
2022/11/04 08:45:29;;;;;;;71.15;30.83;;;;;;;;;;6255782;22;20435;-84
2022/11/04 08:47:55;;;;;;;71.82;32.75;;;;;;;;;;6259760;22;20170;-85
2022/11/04 08:50:26;;;;;;;75.25;31.13;;;;;;;;;;6259914;22;20015;-85
2022/11/04 08:52:52;;;;;;;77.00;33.40;;;;;;;;;;6257689;22;20008;-84
2022/11/04 08:55:18;;;;;;;75.63;31.60;;;;;;;;;;6256727;22;20064;-83
2022/11/04 08:57:44;;;;;;;79.95;33.38;;;;;;;;;;6283477;22;20000;-85
2022/11/04 09:00:12;;;;;;;68.53;31.33;;;;;;;;;;6284941;22;19995;-84
2022/11/04 09:02:39;;;;;;;66.45;30.15;;;;;;;;;;6257645;22;20003;-83
2022/11/04 09:05:05;;;;;;;76.95;31.58;;;;;;;;;;6283378;22;19996;-84
2022/11/04 09:07:34;;;;;;;76.40;32.83;;;;;;;;;;6256608;22;20003;-84
2022/11/04 09:10:01;;;;;;;75.80;33.95;;;;;;;;;;6255565;22;20352;-85
2022/11/04 09:12:27;;;;;;;73.03;30.98;;;;;;;;;;6255991;22;20007;-84
2022/11/04 09:14:53;;;;;;;71.00;31.90;;;;;;;;;;6282804;22;20030;-84
2022/11/04 09:17:19;;;;;;;62.90;30.55;;;;;;;;;;6256633;22;20007;-84
2022/11/04 09:19:45;;;;;;;76.13;31.38;;;;;;;;;;6256073;22;19996;-84
2022/11/04 09:22:11;;;;;;;73.45;32.53;;;;;;;;;;6265963;22;20090;-84
2022/11/04 09:24:37;;;;;;;76.22;31.80;;;;;;;;;;6276196;22;20029;-82
2022/11/04 09:27:04;;;;;;;79.43;32.90;;;;;;;;;;6269260;22;20004;-84
2022/11/04 09:29:32;;;;;;;73.95;32.22;;;;;;;;;;6285172;22;19995;-84
2022/11/04 09:31:58;;;;;;;69.97;31.13;;;;;;;;;;6284917;22;19992;-84
2022/11/04 09:34:24;;;;;;;76.53;30.60;;;;;;;;;;6255300;22;20098;-84
2022/11/04 09:36:54;;;;;;;77.60;31.88;;;;;;;;;;6256400;22;20011;-83
2022/11/04 09:39:20;;;;;;;80.90;31.85;;;;;;;;;;6257593;22;20011;-83
2022/11/04 09:41:46;;;;;;;76.75;31.98;;;;;;;;;;6262229;22;20003;-83
2022/11/04 09:44:22;;;;;;;84.90;33.60;;;;;;;;;;6256495;23;20455;-82
2022/11/04 09:46:49;;;;;;;77.18;31.92;;;;;;;;;;6254927;23;20008;-83
2022/11/04 09:49:15;;;;;;;76.78;30.85;;;;;;;;;;6253722;23;20004;-83
2022/11/04 09:51:46;;;;;;;66.93;29.63;;;;;;;;;;6252036;23;20004;-81
2022/11/04 09:54:18;;;;;;;78.78;32.70;;;;;;;;;;6259632;23;20031;-82
2022/11/04 09:56:48;;;;;;;71.70;29.77;;;;;;;;;;6256485;23;20040;-82
2022/11/04 09:59:18;;;;;;;71.25;27.33;;;;;;;;;;6251970;23;20076;-82
2022/11/04 10:02:01;;;;;;;65.38;28.70;;;;;;;;;;6251461;23;20000;-82
2022/11/04 10:04:33;;;;;;;69.03;28.75;;;;;;;;;;6254478;23;20007;-83
2022/11/04 10:07:05;;;;;;;65.03;29.70;;;;;;;;;;6253706;23;20046;-83
2022/11/04 10:09:34;;;;;;;71.50;29.88;;;;;;;;;;6256154;23;20012;-83
2022/11/04 10:12:12;;;;;;;75.35;29.70;;;;;;;;;;6263664;23;20313;-83
2022/11/04 10:14:45;;;;;;;64.80;27.50;;;;;;;;;;6257901;23;20015;-83
2022/11/04 10:17:20;;;;;;;60.90;27.20;;;;;;;;;;6255791;23;20520;-82
2022/11/04 10:20:04;;;;;;;59.97;28.73;;;;;;;;;;6252722;23;20015;-82
2022/11/04 10:22:32;;;;;;;62.97;27.92;;;;;;;;;;6251735;23;20002;-82
2022/11/04 10:25:08;;;;;;;55.50;25.25;;;;;;;;;;6252306;23;20197;-82
2022/11/04 10:27:36;;;;;;;60.85;26.95;;;;;;;;;;6254744;23;20048;-83
2022/11/04 10:30:22;;;;;;;56.72;26.58;;;;;;;;;;6252312;23;20004;-83
2022/11/04 10:33:01;;;;;;;63.17;29.25;;;;;;;;;;6252610;23;20231;-82
2022/11/04 10:35:30;;;;;;;64.20;29.70;;;;;;;;;;6251966;23;20000;-83
2022/11/04 10:37:58;;;;;;;63.42;28.20;;;;;;;;;;6254611;23;20340;-82
2022/11/04 10:40:27;;;;;;;62.53;28.40;;;;;;;;;;6254564;23;20019;-82
2022/11/04 10:42:55;;;;;;;57.63;26.20;;;;;;;;;;6257510;22;20003;-82
2022/11/04 10:45:27;;;;;;;61.53;25.90;;;;;;;;;;6258496;22;20007;-82
2022/11/04 10:47:58;;;;;;;56.80;26.42;;;;;;;;;;6257682;22;20383;-82
2022/11/04 10:50:31;;;;;;;61.20;28.40;;;;;;;;;;6257515;22;20039;-82
2022/11/04 10:53:15;;;;;;;56.47;25.05;;;;;;;;;;6255675;22;20007;-82
2022/11/04 10:55:53;;;;;;;54.10;25.00;;;;;;;;;;6256389;22;20004;-80
2022/11/04 10:58:22;;;;;;;49.75;22.73;;;;;;;;;;6284148;22;20020;-83
2022/11/04 11:00:48;;;;;;;49.65;23.02;;;;;;;;;;6269175;22;20004;-82
2022/11/04 11:03:30;;;;;;;51.42;24.38;;;;;;;;;;6297629;22;19995;-82
2022/11/04 11:06:23;;;;;;;49.88;25.05;;;;;;;;;;6269878;22;20015;-81
2022/11/04 11:08:50;;;;;;;49.70;22.55;;;;;;;;;;6264647;22;20011;-82
2022/11/04 11:11:16;;;;;;;51.20;23.75;;;;;;;;;;6288407;22;20083;-83
2022/11/04 11:13:44;;;;;;;50.53;22.60;;;;;;;;;;6280951;22;20004;-83
2022/11/04 11:16:18;;;;;;;62.13;29.45;;;;;;;;;;6255392;22;20000;-82
2022/11/04 11:18:44;;;;;;;53.10;27.08;;;;;;;;;;6255038;22;19996;-83
2022/11/04 11:21:12;;;;;;;60.85;28.30;;;;;;;;;;6255411;22;20004;-84
2022/11/04 11:23:46;;;;;;;47.88;23.45;;;;;;;;;;6256234;22;20008;-84
2022/11/04 11:26:14;;;;;;;42.45;22.17;;;;;;;;;;6256095;22;20046;-84
2022/11/04 11:28:40;;;;;;;48.95;21.35;;;;;;;;;;6257247;22;20007;-84
2022/11/04 11:31:15;;;;;;;47.55;22.45;;;;;;;;;;6256318;22;20014;-84
2022/11/04 11:34:01;;;;;;;45.72;21.45;;;;;;;;;;6285479;22;20168;-85
2022/11/04 11:36:38;;;;;;;39.63;18.50;;;;;;;;;;6272467;22;20000;-84
2022/11/04 11:39:20;;;;;;;41.60;21.70;;;;;;;;;;6299016;22;19992;-84
2022/11/04 11:42:01;;;;;;;46.55;21.45;;;;;;;;;;6271861;22;20055;-84
2022/11/04 11:44:32;;;;;;;40.03;19.52;;;;;;;;;;6262257;22;20348;-85
2022/11/04 11:47:03;;;;;;;40.70;20.88;;;;;;;;;;6257366;22;20037;-85
2022/11/04 11:49:33;;;;;;;44.05;20.10;;;;;;;;;;6260177;22;20014;-84
2022/11/04 11:52:31;;;;;;;38.70;19.90;;;;;;;;;;6293288;22;19996;-84
2022/11/04 11:55:06;;;;;;;40.80;20.05;;;;;;;;;;6134349;23;20006;-85
2022/11/04 11:57:32;;;;;;;38.58;19.17;;;;;;;;;;6108056;23;20488;-86
2022/11/04 12:00:06;;;;;;;38.05;18.77;;;;;;;;;;6131863;23;20009;-85
2022/11/04 12:02:47;;;;;;;36.22;19.40;;;;;;;;;;6106381;23;20055;-85
2022/11/04 12:05:14;;;;;;;36.83;17.98;;;;;;;;;;6108381;23;20008;-85
2022/11/04 12:07:47;;;;;;;37.53;18.15;;;;;;;;;;6106022;23;20002;-86
2022/11/04 12:10:13;;;;;;;40.17;18.65;;;;;;;;;;6130743;23;20009;-85
2022/11/04 12:12:42;;;;;;;38.13;18.27;;;;;;;;;;6105576;23;20009;-85
2022/11/04 12:15:23;;;;;;;45.45;23.40;;;;;;;;;;6106675;23;20002;-85
2022/11/04 12:17:49;;;;;;;41.97;21.95;;;;;;;;;;6107583;23;20350;-86
2022/11/04 12:20:33;;;;;;;38.95;20.63;;;;;;;;;;6107779;23;20002;-86
2022/11/04 12:23:07;;;;;;;35.60;19.23;;;;;;;;;;6107356;23;20010;-86
2022/11/04 12:25:51;;;;;;;42.28;19.63;;;;;;;;;;6131675;23;20266;-86
2022/11/04 12:28:23;;;;;;;38.67;19.60;;;;;;;;;;6108664;23;20006;-86
2022/11/04 12:31:09;;;;;;;32.80;18.55;;;;;;;;;;6227544;22;20026;-85
2022/11/04 12:33:39;;;;;;;26.75;14.43;;;;;;;;;;6256812;22;20405;-86
2022/11/04 12:36:08;;;;;;;20.58;12.52;;;;;;;;;;6258142;22;20038;-86
2022/11/04 12:38:40;;;;;;;23.73;12.93;;;;;;;;;;6284883;22;20082;-86
2022/11/04 12:41:25;;;;;;;22.45;13.32;;;;;;;;;;6257568;22;20058;-85
2022/11/04 12:43:51;;;;;;;22.20;12.13;;;;;;;;;;6259748;22;20047;-86
2022/11/04 12:46:31;;;;;;;20.77;11.68;;;;;;;;;;6259579;22;19999;-85
2022/11/04 12:49:06;;;;;;;28.75;15.18;;;;;;;;;;6272570;22;19992;-87
2022/11/04 12:51:50;;;;;;;27.67;15.10;;;;;;;;;;6276389;22;20000;-87
2022/11/04 12:54:19;;;;;;;25.13;14.07;;;;;;;;;;6281987;22;20007;-86
2022/11/04 12:56:50;;;;;;;26.65;15.70;;;;;;;;;;6251850;22;20339;-86
2022/11/04 12:59:17;;;;;;;30.75;15.82;;;;;;;;;;6252435;22;20007;-85
2022/11/04 13:02:18;;;;;;;32.47;18.52;;;;;;;;;;6252144;22;20185;-85
2022/11/04 13:05:05;;;;;;;30.98;16.75;;;;;;;;;;6127717;23;20006;-86
2022/11/04 13:07:35;;;;;;;29.65;15.60;;;;;;;;;;6124785;23;20090;-87
2022/11/04 13:10:07;;;;;;;26.92;15.40;;;;;;;;;;6104094;23;20002;-86
2022/11/04 13:12:36;;;;;;;23.17;13.48;;;;;;;;;;6106622;23;20089;-87
2022/11/04 13:15:05;;;;;;;28.33;15.48;;;;;;;;;;6107504;23;20084;-86
2022/11/04 13:17:37;;;;;;;28.60;15.18;;;;;;;;;;6105750;23;20002;-85
2022/11/04 13:20:14;;;;;;;30.33;15.32;;;;;;;;;;6109314;23;20009;-86
2022/11/04 13:22:42;;;;;;;28.42;15.25;;;;;;;;;;6107652;23;20017;-86
2022/11/04 13:25:16;;;;;;;33.53;16.63;;;;;;;;;;6107689;23;20054;-85
2022/11/04 13:27:46;;;;;;;26.73;15.68;;;;;;;;;;6108022;23;20002;-87
2022/11/04 13:30:15;;;;;;;24.17;13.82;;;;;;;;;;6132468;23;20065;-86
2022/11/04 13:32:57;;;;;;;30.58;15.85;;;;;;;;;;6105487;23;20056;-87
2022/11/04 13:35:30;;;;;;;26.13;16.60;;;;;;;;;;6109751;23;20446;-86
2022/11/04 13:37:59;;;;;;;28.95;14.75;;;;;;;;;;6136380;22;19996;-86
2022/11/04 13:40:34;;;;;;;30.50;15.85;;;;;;;;;;6260992;22;20083;-87
2022/11/04 13:43:36;;;;;;;27.88;15.18;;;;;;;;;;6261615;22;20106;-87
2022/11/04 13:45:48;;;;;;;20.50;13.98;;;;;;;;;;6289180;22;20007;-85
2022/11/04 13:48:17;;;;;;;25.83;15.55;;;;;;;;;;6270106;22;20038;-86
2022/11/04 13:50:43;;;;;;;26.15;15.55;;;;;;;;;;6289588;22;20007;-86
2022/11/04 13:53:13;;;;;;;28.13;14.85;;;;;;;;;;6284336;22;20008;-82
2022/11/04 13:55:48;;;;;;;23.77;14.20;;;;;;;;;;6288300;22;20013;-81
2022/11/04 13:58:20;;;;;;;26.60;15.63;;;;;;;;;;6289230;22;20056;-82
2022/11/04 14:01:06;;;;;;;26.23;13.55;;;;;;;;;;6287931;22;19999;-81
2022/11/04 14:03:35;;;;;;;23.67;13.65;;;;;;;;;;6287790;22;20038;-82
2022/11/04 14:06:02;;;;;;;26.70;13.07;;;;;;;;;;6286779;22;20204;-82
2022/11/04 14:08:28;;;;;;;13.35;6.80;;;;;;;;;;6288078;22;20004;-81
2022/11/04 14:10:59;;;;;;;7.63;3.97;;;;;;;;;;6259424;22;20019;-81
2022/11/04 14:13:28;;;;;;;6.05;3.10;;;;;;;;;;6263304;22;20407;-80
2022/11/04 14:15:57;;;;;;;3.80;1.73;;;;;;;;;;6260999;22;20008;-84
2022/11/04 14:18:28;;;;;;;2.55;1.05;;;;;;;;;;6286352;22;20031;-82
2022/11/04 14:21:06;;;;;;;2.50;1.08;;;;;;;;;;6259107;22;20086;-82
2022/11/04 14:23:32;;;;;;;2.88;1.05;;;;;;;;;;6284477;22;20004;-81
2022/11/04 14:26:00;;;;;;;2.67;1.00;;;;;;;;;;6286435;22;20033;-82
2022/11/04 14:28:28;;;;;;;2.17;0.80;;;;;;;;;;6284365;22;20442;-82
2022/11/04 14:30:58;;;;;;;1.67;0.70;;;;;;;;;;6256648;22;20083;-81
2022/11/04 14:33:24;;;;;;;2.08;0.80;;;;;;;;;;6283061;22;20003;-83
2022/11/04 14:35:53;;;;;;;2.15;0.80;;;;;;;;;;6255470;22;20004;-82
2022/11/04 14:38:23;;;;;;;1.55;0.70;;;;;;;;;;6283159;22;20052;-83
2022/11/04 14:41:12;;;;;;;1.40;0.60;;;;;;;;;;6282377;22;19995;-83
2022/11/04 14:43:39;;;;;;;1.52;0.70;;;;;;;;;;6250790;23;20020;-82
2022/11/04 14:46:08;;;;;;;2.50;0.70;;;;;;;;;;6249944;23;20074;-80
2022/11/04 14:48:34;;;;;;;2.97;1.10;;;;;;;;;;6250098;23;20111;-83
2022/11/04 14:51:00;;;;;;;2.38;0.60;;;;;;;;;;6252231;23;20004;-82
2022/11/04 14:53:33;;;;;;;0.75;0.43;;;;;;;;;;6251002;23;20022;-84
2022/11/04 14:56:11;;;;;;;1.73;0.60;;;;;;;;;;6251955;23;20007;-82
2022/11/04 14:58:37;;;;;;;1.92;0.60;;;;;;;;;;6254650;23;19996;-82
2022/11/04 15:01:04;;;;;;;2.40;0.77;;;;;;;;;;6254419;23;20004;-82
2022/11/04 15:03:34;;;;;;;1.35;0.60;;;;;;;;;;6255210;23;20004;-82